sensor_id;sensor_type;location;lat;lon;timestamp;P1;durP1;ratioP1;P2;durP2;ratioP2
16954;SDS011;8594;52.052;8.354;2023-07-29T00:01:35;3.77;;;2.33;;
16954;SDS011;8594;52.052;8.354;2023-07-29T00:04:02;2.80;;;2.20;;
16954;SDS011;8594;52.052;8.354;2023-07-29T00:06:29;3.00;;;2.30;;
16954;SDS011;8594;52.052;8.354;2023-07-29T00:08:56;2.80;;;1.97;;
16954;SDS011;8594;52.052;8.354;2023-07-29T00:11:24;6.20;;;2.20;;
16954;SDS011;8594;52.052;8.354;2023-07-29T00:13:51;3.43;;;2.37;;
16954;SDS011;8594;52.052;8.354;2023-07-29T00:16:19;3.73;;;2.30;;
16954;SDS011;8594;52.052;8.354;2023-07-29T00:18:47;3.57;;;2.40;;
16954;SDS011;8594;52.052;8.354;2023-07-29T00:21:14;3.73;;;2.37;;
16954;SDS011;8594;52.052;8.354;2023-07-29T00:23:41;2.60;;;2.20;;
16954;SDS011;8594;52.052;8.354;2023-07-29T00:26:08;3.00;;;2.23;;
16954;SDS011;8594;52.052;8.354;2023-07-29T00:28:36;5.60;;;2.50;;
16954;SDS011;8594;52.052;8.354;2023-07-29T00:31:03;3.67;;;2.50;;
16954;SDS011;8594;52.052;8.354;2023-07-29T00:33:30;3.57;;;2.60;;
16954;SDS011;8594;52.052;8.354;2023-07-29T00:35:57;5.70;;;2.60;;
16954;SDS011;8594;52.052;8.354;2023-07-29T00:38:26;3.73;;;2.30;;
16954;SDS011;8594;52.052;8.354;2023-07-29T00:40:53;5.10;;;2.60;;
16954;SDS011;8594;52.052;8.354;2023-07-29T00:43:23;4.23;;;2.57;;
16954;SDS011;8594;52.052;8.354;2023-07-29T00:45:51;4.60;;;2.40;;
16954;SDS011;8594;52.052;8.354;2023-07-29T00:48:19;4.40;;;2.93;;
16954;SDS011;8594;52.052;8.354;2023-07-29T00:50:46;4.67;;;2.70;;
16954;SDS011;8594;52.052;8.354;2023-07-29T00:53:14;4.93;;;3.00;;
16954;SDS011;8594;52.052;8.354;2023-07-29T00:55:41;2.83;;;2.10;;
16954;SDS011;8594;52.052;8.354;2023-07-29T00:58:08;4.13;;;2.73;;
16954;SDS011;8594;52.052;8.354;2023-07-29T01:00:35;3.93;;;2.90;;
16954;SDS011;8594;52.052;8.354;2023-07-29T01:03:04;4.30;;;3.03;;
16954;SDS011;8594;52.052;8.354;2023-07-29T01:05:32;5.30;;;2.70;;
16954;SDS011;8594;52.052;8.354;2023-07-29T01:08:09;6.60;;;2.40;;
16954;SDS011;8594;52.052;8.354;2023-07-29T01:10:51;2.70;;;2.33;;
16954;SDS011;8594;52.052;8.354;2023-07-29T01:13:29;4.30;;;2.67;;
16954;SDS011;8594;52.052;8.354;2023-07-29T01:16:09;3.97;;;2.87;;
16954;SDS011;8594;52.052;8.354;2023-07-29T01:18:45;4.77;;;2.87;;
16954;SDS011;8594;52.052;8.354;2023-07-29T01:21:15;4.10;;;2.80;;
16954;SDS011;8594;52.052;8.354;2023-07-29T01:23:44;5.17;;;2.60;;
16954;SDS011;8594;52.052;8.354;2023-07-29T01:26:11;4.53;;;2.87;;
16954;SDS011;8594;52.052;8.354;2023-07-29T01:28:38;10.40;;;3.00;;
16954;SDS011;8594;52.052;8.354;2023-07-29T01:31:07;7.37;;;2.97;;
16954;SDS011;8594;52.052;8.354;2023-07-29T01:33:40;7.73;;;3.20;;
16954;SDS011;8594;52.052;8.354;2023-07-29T01:36:15;6.07;;;3.00;;
16954;SDS011;8594;52.052;8.354;2023-07-29T01:38:51;3.63;;;2.90;;
16954;SDS011;8594;52.052;8.354;2023-07-29T01:41:18;3.43;;;3.10;;
16954;SDS011;8594;52.052;8.354;2023-07-29T01:43:46;4.40;;;2.83;;
16954;SDS011;8594;52.052;8.354;2023-07-29T01:46:14;6.07;;;3.53;;
16954;SDS011;8594;52.052;8.354;2023-07-29T01:48:41;4.13;;;3.17;;
16954;SDS011;8594;52.052;8.354;2023-07-29T01:51:10;6.53;;;2.83;;
16954;SDS011;8594;52.052;8.354;2023-07-29T01:53:38;5.33;;;3.57;;
16954;SDS011;8594;52.052;8.354;2023-07-29T01:56:06;3.77;;;3.13;;
16954;SDS011;8594;52.052;8.354;2023-07-29T01:58:33;3.67;;;3.10;;
16954;SDS011;8594;52.052;8.354;2023-07-29T02:01:00;3.70;;;2.93;;
16954;SDS011;8594;52.052;8.354;2023-07-29T02:03:27;8.20;;;3.20;;
16954;SDS011;8594;52.052;8.354;2023-07-29T02:05:54;4.53;;;2.90;;
16954;SDS011;8594;52.052;8.354;2023-07-29T02:08:20;3.87;;;3.17;;
16954;SDS011;8594;52.052;8.354;2023-07-29T02:10:47;3.70;;;3.30;;
16954;SDS011;8594;52.052;8.354;2023-07-29T02:13:16;4.10;;;2.90;;
16954;SDS011;8594;52.052;8.354;2023-07-29T02:15:42;4.83;;;3.10;;
16954;SDS011;8594;52.052;8.354;2023-07-29T02:18:10;3.93;;;3.10;;
16954;SDS011;8594;52.052;8.354;2023-07-29T02:20:36;3.87;;;3.17;;
16954;SDS011;8594;52.052;8.354;2023-07-29T02:23:03;7.30;;;3.43;;
16954;SDS011;8594;52.052;8.354;2023-07-29T02:25:30;4.50;;;3.13;;
16954;SDS011;8594;52.052;8.354;2023-07-29T02:27:57;4.17;;;3.20;;
16954;SDS011;8594;52.052;8.354;2023-07-29T02:30:25;7.30;;;3.60;;
16954;SDS011;8594;52.052;8.354;2023-07-29T02:32:52;8.53;;;3.60;;
16954;SDS011;8594;52.052;8.354;2023-07-29T02:35:19;5.67;;;3.60;;
16954;SDS011;8594;52.052;8.354;2023-07-29T02:37:46;3.87;;;3.47;;
16954;SDS011;8594;52.052;8.354;2023-07-29T02:40:13;7.33;;;4.23;;
16954;SDS011;8594;52.052;8.354;2023-07-29T02:42:40;7.33;;;3.40;;
16954;SDS011;8594;52.052;8.354;2023-07-29T02:45:07;3.90;;;3.27;;
16954;SDS011;8594;52.052;8.354;2023-07-29T02:47:37;6.33;;;4.03;;
16954;SDS011;8594;52.052;8.354;2023-07-29T02:50:05;4.83;;;3.83;;
16954;SDS011;8594;52.052;8.354;2023-07-29T02:52:32;5.30;;;3.20;;
16954;SDS011;8594;52.052;8.354;2023-07-29T02:54:59;6.13;;;3.40;;
16954;SDS011;8594;52.052;8.354;2023-07-29T02:57:26;7.80;;;3.40;;
16954;SDS011;8594;52.052;8.354;2023-07-29T02:59:53;4.73;;;3.77;;
16954;SDS011;8594;52.052;8.354;2023-07-29T03:02:20;4.80;;;3.67;;
16954;SDS011;8594;52.052;8.354;2023-07-29T03:04:48;7.93;;;3.60;;
16954;SDS011;8594;52.052;8.354;2023-07-29T03:07:15;7.67;;;3.73;;
16954;SDS011;8594;52.052;8.354;2023-07-29T03:09:42;5.63;;;3.80;;
16954;SDS011;8594;52.052;8.354;2023-07-29T03:12:10;5.30;;;3.63;;
16954;SDS011;8594;52.052;8.354;2023-07-29T03:14:37;5.63;;;3.27;;
16954;SDS011;8594;52.052;8.354;2023-07-29T03:17:06;4.47;;;3.33;;
16954;SDS011;8594;52.052;8.354;2023-07-29T03:19:33;6.33;;;3.73;;
16954;SDS011;8594;52.052;8.354;2023-07-29T03:22:01;4.10;;;3.33;;
16954;SDS011;8594;52.052;8.354;2023-07-29T03:24:28;3.80;;;3.40;;
16954;SDS011;8594;52.052;8.354;2023-07-29T03:26:55;4.63;;;3.90;;
16954;SDS011;8594;52.052;8.354;2023-07-29T03:29:22;5.97;;;4.07;;
16954;SDS011;8594;52.052;8.354;2023-07-29T03:31:49;8.13;;;4.10;;
16954;SDS011;8594;52.052;8.354;2023-07-29T03:34:15;8.33;;;4.10;;
16954;SDS011;8594;52.052;8.354;2023-07-29T03:36:42;4.47;;;3.50;;
16954;SDS011;8594;52.052;8.354;2023-07-29T03:39:12;4.90;;;3.50;;
16954;SDS011;8594;52.052;8.354;2023-07-29T03:41:39;4.40;;;3.30;;
16954;SDS011;8594;52.052;8.354;2023-07-29T03:44:06;5.77;;;3.70;;
16954;SDS011;8594;52.052;8.354;2023-07-29T03:46:33;5.17;;;3.97;;
16954;SDS011;8594;52.052;8.354;2023-07-29T03:48:59;3.90;;;3.50;;
16954;SDS011;8594;52.052;8.354;2023-07-29T03:51:26;5.40;;;3.63;;
16954;SDS011;8594;52.052;8.354;2023-07-29T03:53:53;5.70;;;3.90;;
16954;SDS011;8594;52.052;8.354;2023-07-29T03:56:21;5.00;;;3.70;;
16954;SDS011;8594;52.052;8.354;2023-07-29T03:58:48;4.03;;;3.53;;
16954;SDS011;8594;52.052;8.354;2023-07-29T04:01:15;6.27;;;3.43;;
16954;SDS011;8594;52.052;8.354;2023-07-29T04:03:42;4.27;;;3.33;;
16954;SDS011;8594;52.052;8.354;2023-07-29T04:06:09;4.10;;;3.63;;
16954;SDS011;8594;52.052;8.354;2023-07-29T04:08:36;4.07;;;3.57;;
16954;SDS011;8594;52.052;8.354;2023-07-29T04:11:03;4.00;;;3.60;;
16954;SDS011;8594;52.052;8.354;2023-07-29T04:13:31;4.00;;;3.30;;
16954;SDS011;8594;52.052;8.354;2023-07-29T04:15:58;3.93;;;3.30;;
16954;SDS011;8594;52.052;8.354;2023-07-29T04:18:25;4.67;;;3.77;;
16954;SDS011;8594;52.052;8.354;2023-07-29T04:20:52;3.47;;;3.17;;
16954;SDS011;8594;52.052;8.354;2023-07-29T04:23:18;5.00;;;4.10;;
16954;SDS011;8594;52.052;8.354;2023-07-29T04:25:45;3.97;;;3.13;;
16954;SDS011;8594;52.052;8.354;2023-07-29T04:28:12;4.33;;;3.57;;
16954;SDS011;8594;52.052;8.354;2023-07-29T04:30:40;9.00;;;3.57;;
16954;SDS011;8594;52.052;8.354;2023-07-29T04:33:07;3.90;;;3.30;;
16954;SDS011;8594;52.052;8.354;2023-07-29T04:35:34;4.30;;;3.33;;
16954;SDS011;8594;52.052;8.354;2023-07-29T04:38:01;5.30;;;3.53;;
16954;SDS011;8594;52.052;8.354;2023-07-29T04:40:28;4.90;;;3.50;;
16954;SDS011;8594;52.052;8.354;2023-07-29T04:42:55;5.17;;;3.57;;
16954;SDS011;8594;52.052;8.354;2023-07-29T04:45:22;4.27;;;3.30;;
16954;SDS011;8594;52.052;8.354;2023-07-29T04:47:50;3.97;;;3.20;;
16954;SDS011;8594;52.052;8.354;2023-07-29T04:50:17;4.83;;;3.10;;
16954;SDS011;8594;52.052;8.354;2023-07-29T04:52:44;4.47;;;3.60;;
16954;SDS011;8594;52.052;8.354;2023-07-29T04:55:11;5.70;;;4.00;;
16954;SDS011;8594;52.052;8.354;2023-07-29T04:57:38;3.57;;;3.13;;
16954;SDS011;8594;52.052;8.354;2023-07-29T05:00:06;3.63;;;3.27;;
16954;SDS011;8594;52.052;8.354;2023-07-29T05:02:34;4.17;;;3.23;;
16954;SDS011;8594;52.052;8.354;2023-07-29T05:05:03;5.37;;;3.33;;
16954;SDS011;8594;52.052;8.354;2023-07-29T05:07:31;4.40;;;3.10;;
16954;SDS011;8594;52.052;8.354;2023-07-29T05:09:57;5.20;;;3.43;;
16954;SDS011;8594;52.052;8.354;2023-07-29T05:12:24;7.77;;;3.50;;
16954;SDS011;8594;52.052;8.354;2023-07-29T05:14:52;5.40;;;3.93;;
16954;SDS011;8594;52.052;8.354;2023-07-29T05:17:19;4.80;;;3.60;;
16954;SDS011;8594;52.052;8.354;2023-07-29T05:19:46;5.10;;;3.70;;
16954;SDS011;8594;52.052;8.354;2023-07-29T05:22:14;6.20;;;3.57;;
16954;SDS011;8594;52.052;8.354;2023-07-29T05:24:41;5.67;;;4.30;;
16954;SDS011;8594;52.052;8.354;2023-07-29T05:27:08;4.90;;;4.03;;
16954;SDS011;8594;52.052;8.354;2023-07-29T05:29:35;5.33;;;4.07;;
16954;SDS011;8594;52.052;8.354;2023-07-29T05:32:02;4.17;;;3.40;;
16954;SDS011;8594;52.052;8.354;2023-07-29T05:34:29;4.80;;;3.50;;
16954;SDS011;8594;52.052;8.354;2023-07-29T05:36:56;6.27;;;4.10;;
16954;SDS011;8594;52.052;8.354;2023-07-29T05:39:24;6.80;;;3.90;;
16954;SDS011;8594;52.052;8.354;2023-07-29T05:41:51;4.97;;;3.83;;
16954;SDS011;8594;52.052;8.354;2023-07-29T05:44:18;5.20;;;3.20;;
16954;SDS011;8594;52.052;8.354;2023-07-29T05:46:45;7.97;;;4.40;;
16954;SDS011;8594;52.052;8.354;2023-07-29T05:49:12;6.23;;;3.53;;
16954;SDS011;8594;52.052;8.354;2023-07-29T05:51:40;5.07;;;3.67;;
16954;SDS011;8594;52.052;8.354;2023-07-29T05:54:07;4.90;;;3.90;;
16954;SDS011;8594;52.052;8.354;2023-07-29T05:56:35;5.97;;;3.37;;
16954;SDS011;8594;52.052;8.354;2023-07-29T05:59:01;4.83;;;3.63;;
16954;SDS011;8594;52.052;8.354;2023-07-29T06:01:28;4.40;;;3.37;;
16954;SDS011;8594;52.052;8.354;2023-07-29T06:03:55;5.30;;;3.13;;
16954;SDS011;8594;52.052;8.354;2023-07-29T06:06:22;6.77;;;3.07;;
16954;SDS011;8594;52.052;8.354;2023-07-29T06:08:49;4.93;;;3.10;;
16954;SDS011;8594;52.052;8.354;2023-07-29T06:11:16;4.93;;;2.80;;
16954;SDS011;8594;52.052;8.354;2023-07-29T06:13:45;3.93;;;3.13;;
16954;SDS011;8594;52.052;8.354;2023-07-29T06:16:13;5.43;;;3.40;;
16954;SDS011;8594;52.052;8.354;2023-07-29T06:18:40;4.80;;;3.50;;
16954;SDS011;8594;52.052;8.354;2023-07-29T06:21:07;3.97;;;3.33;;
16954;SDS011;8594;52.052;8.354;2023-07-29T06:23:37;4.73;;;3.30;;
16954;SDS011;8594;52.052;8.354;2023-07-29T06:26:04;5.60;;;3.03;;
16954;SDS011;8594;52.052;8.354;2023-07-29T06:28:31;4.00;;;3.37;;
16954;SDS011;8594;52.052;8.354;2023-07-29T06:31:00;4.93;;;3.57;;
16954;SDS011;8594;52.052;8.354;2023-07-29T06:33:27;7.77;;;3.50;;
16954;SDS011;8594;52.052;8.354;2023-07-29T06:35:54;6.87;;;4.53;;
16954;SDS011;8594;52.052;8.354;2023-07-29T06:38:21;4.93;;;4.13;;
16954;SDS011;8594;52.052;8.354;2023-07-29T06:40:47;7.10;;;4.37;;
16954;SDS011;8594;52.052;8.354;2023-07-29T06:43:16;6.50;;;5.20;;
16954;SDS011;8594;52.052;8.354;2023-07-29T06:45:43;11.00;;;5.43;;
16954;SDS011;8594;52.052;8.354;2023-07-29T06:48:11;7.57;;;4.50;;
16954;SDS011;8594;52.052;8.354;2023-07-29T06:50:38;7.97;;;5.20;;
16954;SDS011;8594;52.052;8.354;2023-07-29T06:53:05;5.63;;;4.93;;
16954;SDS011;8594;52.052;8.354;2023-07-29T06:55:32;8.77;;;6.80;;
16954;SDS011;8594;52.052;8.354;2023-07-29T06:57:59;11.47;;;6.20;;
16954;SDS011;8594;52.052;8.354;2023-07-29T07:00:26;9.70;;;7.73;;
16954;SDS011;8594;52.052;8.354;2023-07-29T07:02:53;12.10;;;8.80;;
16954;SDS011;8594;52.052;8.354;2023-07-29T07:05:21;15.03;;;9.93;;
16954;SDS011;8594;52.052;8.354;2023-07-29T07:07:48;15.20;;;10.37;;
16954;SDS011;8594;52.052;8.354;2023-07-29T07:10:15;13.90;;;10.57;;
16954;SDS011;8594;52.052;8.354;2023-07-29T07:12:42;16.57;;;11.30;;
16954;SDS011;8594;52.052;8.354;2023-07-29T07:15:09;12.57;;;10.07;;
16954;SDS011;8594;52.052;8.354;2023-07-29T07:17:36;16.27;;;10.97;;
16954;SDS011;8594;52.052;8.354;2023-07-29T07:20:03;17.53;;;10.90;;
16954;SDS011;8594;52.052;8.354;2023-07-29T07:22:33;16.00;;;10.63;;
16954;SDS011;8594;52.052;8.354;2023-07-29T07:25:00;28.80;;;20.30;;
16954;SDS011;8594;52.052;8.354;2023-07-29T07:27:27;12.73;;;10.07;;
16954;SDS011;8594;52.052;8.354;2023-07-29T07:29:53;10.20;;;9.10;;
16954;SDS011;8594;52.052;8.354;2023-07-29T07:32:20;14.93;;;9.63;;
16954;SDS011;8594;52.052;8.354;2023-07-29T07:34:47;10.30;;;8.13;;
16954;SDS011;8594;52.052;8.354;2023-07-29T07:37:14;8.80;;;7.63;;
16954;SDS011;8594;52.052;8.354;2023-07-29T07:39:42;12.13;;;8.00;;
16954;SDS011;8594;52.052;8.354;2023-07-29T07:42:09;7.30;;;6.60;;
16954;SDS011;8594;52.052;8.354;2023-07-29T07:44:36;7.43;;;6.27;;
16954;SDS011;8594;52.052;8.354;2023-07-29T07:47:03;6.23;;;5.63;;
16954;SDS011;8594;52.052;8.354;2023-07-29T07:49:30;7.50;;;5.17;;
16954;SDS011;8594;52.052;8.354;2023-07-29T07:51:57;9.53;;;4.90;;
16954;SDS011;8594;52.052;8.354;2023-07-29T07:54:24;5.33;;;4.77;;
16954;SDS011;8594;52.052;8.354;2023-07-29T07:56:52;5.87;;;3.90;;
16954;SDS011;8594;52.052;8.354;2023-07-29T07:59:19;4.43;;;3.73;;
16954;SDS011;8594;52.052;8.354;2023-07-29T08:01:46;8.33;;;3.30;;
16954;SDS011;8594;52.052;8.354;2023-07-29T08:04:12;4.40;;;3.27;;
16954;SDS011;8594;52.052;8.354;2023-07-29T08:06:39;6.80;;;3.10;;
16954;SDS011;8594;52.052;8.354;2023-07-29T08:09:06;4.03;;;3.10;;
16954;SDS011;8594;52.052;8.354;2023-07-29T08:11:33;5.27;;;3.07;;
16954;SDS011;8594;52.052;8.354;2023-07-29T08:14:01;6.63;;;3.30;;
16954;SDS011;8594;52.052;8.354;2023-07-29T08:16:28;5.07;;;3.10;;
16954;SDS011;8594;52.052;8.354;2023-07-29T08:18:55;4.10;;;3.10;;
16954;SDS011;8594;52.052;8.354;2023-07-29T08:21:22;4.07;;;3.13;;
16954;SDS011;8594;52.052;8.354;2023-07-29T08:23:49;3.23;;;2.77;;
16954;SDS011;8594;52.052;8.354;2023-07-29T08:26:16;4.30;;;3.20;;
16954;SDS011;8594;52.052;8.354;2023-07-29T08:28:43;4.53;;;3.10;;
16954;SDS011;8594;52.052;8.354;2023-07-29T08:31:11;3.87;;;2.80;;
16954;SDS011;8594;52.052;8.354;2023-07-29T08:33:38;7.57;;;3.30;;
16954;SDS011;8594;52.052;8.354;2023-07-29T08:36:05;3.10;;;2.40;;
16954;SDS011;8594;52.052;8.354;2023-07-29T08:38:31;3.97;;;2.40;;
16954;SDS011;8594;52.052;8.354;2023-07-29T08:40:59;5.57;;;2.30;;
16954;SDS011;8594;52.052;8.354;2023-07-29T08:43:36;3.33;;;1.80;;
16954;SDS011;8594;52.052;8.354;2023-07-29T08:46:10;5.17;;;1.87;;
16954;SDS011;8594;52.052;8.354;2023-07-29T08:48:39;2.83;;;1.70;;
16954;SDS011;8594;52.052;8.354;2023-07-29T08:51:08;2.47;;;1.53;;
16954;SDS011;8594;52.052;8.354;2023-07-29T08:53:37;2.83;;;1.80;;
16954;SDS011;8594;52.052;8.354;2023-07-29T08:56:06;2.10;;;1.40;;
16954;SDS011;8594;52.052;8.354;2023-07-29T08:58:33;2.43;;;1.80;;
16954;SDS011;8594;52.052;8.354;2023-07-29T09:01:01;1.87;;;1.50;;
16954;SDS011;8594;52.052;8.354;2023-07-29T09:03:29;4.03;;;1.50;;
16954;SDS011;8594;52.052;8.354;2023-07-29T09:05:56;1.73;;;1.47;;
16954;SDS011;8594;52.052;8.354;2023-07-29T09:08:25;2.97;;;1.37;;
16954;SDS011;8594;52.052;8.354;2023-07-29T09:10:53;1.23;;;1.10;;
16954;SDS011;8594;52.052;8.354;2023-07-29T09:13:21;2.30;;;1.40;;
16954;SDS011;8594;52.052;8.354;2023-07-29T09:15:48;2.10;;;1.40;;
16954;SDS011;8594;52.052;8.354;2023-07-29T09:18:15;1.77;;;1.27;;
16954;SDS011;8594;52.052;8.354;2023-07-29T09:20:47;2.13;;;1.47;;
16954;SDS011;8594;52.052;8.354;2023-07-29T09:23:16;1.83;;;1.10;;
16954;SDS011;8594;52.052;8.354;2023-07-29T09:25:43;2.13;;;1.23;;
16954;SDS011;8594;52.052;8.354;2023-07-29T09:28:14;1.00;;;0.90;;
16954;SDS011;8594;52.052;8.354;2023-07-29T09:30:45;1.83;;;0.97;;
16954;SDS011;8594;52.052;8.354;2023-07-29T09:33:13;2.37;;;1.00;;
16954;SDS011;8594;52.052;8.354;2023-07-29T09:35:40;1.50;;;1.10;;
16954;SDS011;8594;52.052;8.354;2023-07-29T09:38:10;1.23;;;1.00;;
16954;SDS011;8594;52.052;8.354;2023-07-29T09:40:41;3.20;;;1.17;;
16954;SDS011;8594;52.052;8.354;2023-07-29T09:43:10;1.30;;;1.10;;
16954;SDS011;8594;52.052;8.354;2023-07-29T09:45:37;1.90;;;1.10;;
16954;SDS011;8594;52.052;8.354;2023-07-29T09:48:05;1.87;;;1.20;;
16954;SDS011;8594;52.052;8.354;2023-07-29T09:50:35;1.70;;;1.20;;
16954;SDS011;8594;52.052;8.354;2023-07-29T09:53:01;1.10;;;1.00;;
16954;SDS011;8594;52.052;8.354;2023-07-29T09:55:32;1.50;;;1.00;;
16954;SDS011;8594;52.052;8.354;2023-07-29T09:58:00;1.00;;;0.90;;
16954;SDS011;8594;52.052;8.354;2023-07-29T10:00:32;2.43;;;1.30;;
16954;SDS011;8594;52.052;8.354;2023-07-29T10:02:59;1.90;;;0.90;;
16954;SDS011;8594;52.052;8.354;2023-07-29T10:05:27;1.37;;;1.00;;
16954;SDS011;8594;52.052;8.354;2023-07-29T10:07:55;1.63;;;1.20;;
16954;SDS011;8594;52.052;8.354;2023-07-29T10:10:23;3.43;;;1.10;;
16954;SDS011;8594;52.052;8.354;2023-07-29T10:12:51;1.30;;;1.07;;
16954;SDS011;8594;52.052;8.354;2023-07-29T10:15:20;1.57;;;1.10;;
16954;SDS011;8594;52.052;8.354;2023-07-29T10:17:48;1.37;;;1.07;;
16954;SDS011;8594;52.052;8.354;2023-07-29T10:20:17;1.93;;;1.10;;
16954;SDS011;8594;52.052;8.354;2023-07-29T10:22:45;2.90;;;1.40;;
16954;SDS011;8594;52.052;8.354;2023-07-29T10:25:15;1.30;;;0.83;;
16954;SDS011;8594;52.052;8.354;2023-07-29T10:27:47;5.57;;;1.50;;
16954;SDS011;8594;52.052;8.354;2023-07-29T10:30:21;2.03;;;1.30;;
16954;SDS011;8594;52.052;8.354;2023-07-29T10:32:50;4.40;;;1.10;;
16954;SDS011;8594;52.052;8.354;2023-07-29T10:35:19;1.40;;;1.03;;
16954;SDS011;8594;52.052;8.354;2023-07-29T10:37:46;1.23;;;0.80;;
16954;SDS011;8594;52.052;8.354;2023-07-29T10:40:16;1.73;;;1.00;;
16954;SDS011;8594;52.052;8.354;2023-07-29T10:45:36;1.43;;;0.90;;
16954;SDS011;8594;52.052;8.354;2023-07-29T10:48:05;1.73;;;1.10;;
16954;SDS011;8594;52.052;8.354;2023-07-29T10:50:33;2.47;;;0.90;;
16954;SDS011;8594;52.052;8.354;2023-07-29T10:53:01;1.07;;;0.70;;
16954;SDS011;8594;52.052;8.354;2023-07-29T10:55:28;2.63;;;1.03;;
16954;SDS011;8594;52.052;8.354;2023-07-29T10:58:06;2.00;;;0.90;;
16954;SDS011;8594;52.052;8.354;2023-07-29T11:00:43;2.40;;;1.03;;
16954;SDS011;8594;52.052;8.354;2023-07-29T11:03:11;1.40;;;1.20;;
16954;SDS011;8594;52.052;8.354;2023-07-29T11:05:47;2.40;;;1.00;;
16954;SDS011;8594;52.052;8.354;2023-07-29T11:08:16;2.27;;;0.90;;
16954;SDS011;8594;52.052;8.354;2023-07-29T11:10:57;1.80;;;0.87;;
16954;SDS011;8594;52.052;8.354;2023-07-29T11:13:29;1.00;;;0.80;;
16954;SDS011;8594;52.052;8.354;2023-07-29T11:15:57;2.40;;;1.00;;
16954;SDS011;8594;52.052;8.354;2023-07-29T11:18:26;2.87;;;0.83;;
16954;SDS011;8594;52.052;8.354;2023-07-29T11:20:55;1.80;;;0.80;;
16954;SDS011;8594;52.052;8.354;2023-07-29T11:23:29;2.23;;;0.90;;
16954;SDS011;8594;52.052;8.354;2023-07-29T11:25:58;1.10;;;0.90;;
16954;SDS011;8594;52.052;8.354;2023-07-29T11:28:26;2.73;;;0.90;;
16954;SDS011;8594;52.052;8.354;2023-07-29T11:30:55;0.77;;;0.73;;
16954;SDS011;8594;52.052;8.354;2023-07-29T11:33:24;1.20;;;0.80;;
16954;SDS011;8594;52.052;8.354;2023-07-29T11:35:53;2.73;;;1.47;;
16954;SDS011;8594;52.052;8.354;2023-07-29T11:38:20;3.20;;;1.17;;
16954;SDS011;8594;52.052;8.354;2023-07-29T11:40:55;1.73;;;1.00;;
16954;SDS011;8594;52.052;8.354;2023-07-29T11:43:24;1.23;;;1.03;;
16954;SDS011;8594;52.052;8.354;2023-07-29T11:45:53;1.07;;;0.97;;
16954;SDS011;8594;52.052;8.354;2023-07-29T11:48:27;2.23;;;0.93;;
16954;SDS011;8594;52.052;8.354;2023-07-29T11:50:54;2.90;;;0.90;;
16954;SDS011;8594;52.052;8.354;2023-07-29T11:53:21;1.40;;;1.00;;
16954;SDS011;8594;52.052;8.354;2023-07-29T11:55:51;1.47;;;1.27;;
16954;SDS011;8594;52.052;8.354;2023-07-29T11:58:18;1.00;;;0.90;;
16954;SDS011;8594;52.052;8.354;2023-07-29T12:00:46;1.40;;;0.90;;
16954;SDS011;8594;52.052;8.354;2023-07-29T12:03:16;1.30;;;1.10;;
16954;SDS011;8594;52.052;8.354;2023-07-29T12:05:43;2.60;;;0.97;;
16954;SDS011;8594;52.052;8.354;2023-07-29T12:08:11;1.50;;;1.00;;
16954;SDS011;8594;52.052;8.354;2023-07-29T12:10:38;3.37;;;1.17;;
16954;SDS011;8594;52.052;8.354;2023-07-29T12:13:07;1.37;;;1.00;;
16954;SDS011;8594;52.052;8.354;2023-07-29T12:15:34;1.80;;;0.93;;
16954;SDS011;8594;52.052;8.354;2023-07-29T12:18:04;3.97;;;1.10;;
16954;SDS011;8594;52.052;8.354;2023-07-29T12:20:33;1.77;;;1.10;;
16954;SDS011;8594;52.052;8.354;2023-07-29T12:23:01;2.13;;;1.10;;
16954;SDS011;8594;52.052;8.354;2023-07-29T12:25:30;1.90;;;1.00;;
16954;SDS011;8594;52.052;8.354;2023-07-29T12:28:01;1.63;;;1.00;;
16954;SDS011;8594;52.052;8.354;2023-07-29T12:30:30;1.90;;;1.20;;
16954;SDS011;8594;52.052;8.354;2023-07-29T12:32:57;2.33;;;1.10;;
16954;SDS011;8594;52.052;8.354;2023-07-29T12:35:24;1.73;;;1.27;;
16954;SDS011;8594;52.052;8.354;2023-07-29T12:38:01;1.73;;;1.00;;
16954;SDS011;8594;52.052;8.354;2023-07-29T12:40:28;2.07;;;1.00;;
16954;SDS011;8594;52.052;8.354;2023-07-29T12:42:55;1.60;;;1.10;;
16954;SDS011;8594;52.052;8.354;2023-07-29T12:45:23;1.93;;;0.90;;
16954;SDS011;8594;52.052;8.354;2023-07-29T12:47:52;2.50;;;1.10;;
16954;SDS011;8594;52.052;8.354;2023-07-29T12:50:19;1.63;;;1.13;;
16954;SDS011;8594;52.052;8.354;2023-07-29T12:52:47;1.77;;;1.20;;
16954;SDS011;8594;52.052;8.354;2023-07-29T12:55:14;1.53;;;1.00;;
16954;SDS011;8594;52.052;8.354;2023-07-29T12:57:41;2.73;;;1.13;;
16954;SDS011;8594;52.052;8.354;2023-07-29T13:00:09;2.10;;;1.17;;
16954;SDS011;8594;52.052;8.354;2023-07-29T13:02:37;1.40;;;1.00;;
16954;SDS011;8594;52.052;8.354;2023-07-29T13:05:04;1.40;;;1.00;;
16954;SDS011;8594;52.052;8.354;2023-07-29T13:07:35;1.37;;;0.93;;
16954;SDS011;8594;52.052;8.354;2023-07-29T13:10:03;2.17;;;1.07;;
16954;SDS011;8594;52.052;8.354;2023-07-29T13:12:31;2.13;;;0.90;;
16954;SDS011;8594;52.052;8.354;2023-07-29T13:14:58;2.40;;;1.17;;
16954;SDS011;8594;52.052;8.354;2023-07-29T13:17:25;3.93;;;1.20;;
16954;SDS011;8594;52.052;8.354;2023-07-29T13:19:52;3.27;;;1.23;;
16954;SDS011;8594;52.052;8.354;2023-07-29T13:22:19;5.73;;;1.23;;
16954;SDS011;8594;52.052;8.354;2023-07-29T13:24:47;1.00;;;0.90;;
16954;SDS011;8594;52.052;8.354;2023-07-29T13:27:15;3.83;;;1.30;;
16954;SDS011;8594;52.052;8.354;2023-07-29T13:29:42;2.67;;;1.40;;
16954;SDS011;8594;52.052;8.354;2023-07-29T13:32:09;2.47;;;1.23;;
16954;SDS011;8594;52.052;8.354;2023-07-29T13:34:36;2.63;;;1.20;;
16954;SDS011;8594;52.052;8.354;2023-07-29T13:37:05;1.73;;;1.10;;
16954;SDS011;8594;52.052;8.354;2023-07-29T13:39:32;2.00;;;1.23;;
16954;SDS011;8594;52.052;8.354;2023-07-29T13:41:59;1.50;;;1.20;;
16954;SDS011;8594;52.052;8.354;2023-07-29T13:44:27;1.73;;;1.17;;
16954;SDS011;8594;52.052;8.354;2023-07-29T13:46:54;1.90;;;1.40;;
16954;SDS011;8594;52.052;8.354;2023-07-29T13:49:21;2.13;;;1.10;;
16954;SDS011;8594;52.052;8.354;2023-07-29T13:51:48;2.27;;;1.40;;
16954;SDS011;8594;52.052;8.354;2023-07-29T13:54:15;1.40;;;1.20;;
16954;SDS011;8594;52.052;8.354;2023-07-29T13:56:41;2.63;;;0.93;;
16954;SDS011;8594;52.052;8.354;2023-07-29T13:59:08;3.37;;;1.17;;
16954;SDS011;8594;52.052;8.354;2023-07-29T14:01:36;3.53;;;1.30;;
16954;SDS011;8594;52.052;8.354;2023-07-29T14:04:03;1.60;;;1.20;;
16954;SDS011;8594;52.052;8.354;2023-07-29T14:06:30;1.77;;;1.27;;
16954;SDS011;8594;52.052;8.354;2023-07-29T14:08:58;2.33;;;1.20;;
16954;SDS011;8594;52.052;8.354;2023-07-29T14:11:25;2.27;;;1.60;;
16954;SDS011;8594;52.052;8.354;2023-07-29T14:13:52;1.73;;;1.37;;
16954;SDS011;8594;52.052;8.354;2023-07-29T14:16:18;2.40;;;1.40;;
16954;SDS011;8594;52.052;8.354;2023-07-29T14:18:46;2.20;;;1.40;;
16954;SDS011;8594;52.052;8.354;2023-07-29T14:21:13;1.67;;;1.30;;
16954;SDS011;8594;52.052;8.354;2023-07-29T14:23:40;2.20;;;1.30;;
16954;SDS011;8594;52.052;8.354;2023-07-29T14:26:07;1.40;;;1.17;;
16954;SDS011;8594;52.052;8.354;2023-07-29T14:28:34;2.80;;;1.47;;
16954;SDS011;8594;52.052;8.354;2023-07-29T14:31:01;1.57;;;1.30;;
16954;SDS011;8594;52.052;8.354;2023-07-29T14:33:28;1.70;;;1.20;;
16954;SDS011;8594;52.052;8.354;2023-07-29T14:35:57;2.17;;;1.30;;
16954;SDS011;8594;52.052;8.354;2023-07-29T14:38:23;2.10;;;1.40;;
16954;SDS011;8594;52.052;8.354;2023-07-29T14:40:51;2.07;;;1.43;;
16954;SDS011;8594;52.052;8.354;2023-07-29T14:43:19;4.00;;;1.60;;
16954;SDS011;8594;52.052;8.354;2023-07-29T14:45:47;1.73;;;1.40;;
16954;SDS011;8594;52.052;8.354;2023-07-29T14:48:14;18.17;;;4.60;;
16954;SDS011;8594;52.052;8.354;2023-07-29T14:50:41;5.50;;;2.30;;
16954;SDS011;8594;52.052;8.354;2023-07-29T14:53:10;5.50;;;2.40;;
16954;SDS011;8594;52.052;8.354;2023-07-29T14:55:37;9.67;;;2.30;;
16954;SDS011;8594;52.052;8.354;2023-07-29T14:58:04;8.03;;;2.70;;
16954;SDS011;8594;52.052;8.354;2023-07-29T15:00:31;10.30;;;3.37;;
16954;SDS011;8594;52.052;8.354;2023-07-29T15:02:58;7.87;;;2.50;;
16954;SDS011;8594;52.052;8.354;2023-07-29T15:05:25;4.33;;;2.00;;
16954;SDS011;8594;52.052;8.354;2023-07-29T15:07:52;3.80;;;2.00;;